Time;durP1;ratioP1;P1;durP2;ratioP2;P2;SDS_P1;SDS_P2;PMS_P1;PMS_P2;Temp;Humidity;BMP_temperature;BMP_pressure;BME280_temperature;BME280_humidity;BME280_pressure;Samples;Min_cycle;Max_cycle;Signal;HPM_P1;HPM_P2
2023/09/06 03:00:47;;;;;;;;;;;22.70;56.60;;;;;;5737338;23;45967;-84
2023/09/06 03:03:15;;;;;;;;;;;22.70;56.60;;;;;;4888635;28;45537;-84
2023/09/06 03:05:41;;;;;;;;;;;22.70;56.60;;;;;;4878890;28;45290;-84
2023/09/06 03:08:07;;;;;;;;;;;22.70;56.60;;;;;;4899801;28;45527;-84
2023/09/06 03:10:34;;;;;;;;;;;22.70;56.60;;;;;;4898607;28;45410;-84
2023/09/06 03:13:00;;;;;;;;;;;22.70;56.50;;;;;;4903945;28;45638;-84
2023/09/06 03:15:30;;;;;;;;;;;22.70;56.60;;;;;;4881319;28;45489;-84
2023/09/06 03:17:58;;;;;;;;;;;22.70;56.50;;;;;;4019232;29;10000225;-84
2023/09/06 03:20:33;;;;;;;;;;;22.70;56.50;;;;;;4875587;28;44993;-84
2023/09/06 03:23:05;;;;;;;;;;;22.70;56.50;;;;;;4887264;28;45168;-85
2023/09/06 03:25:32;;;;;;;;;;;22.70;56.50;;;;;;4018200;28;10000915;-84
2023/09/06 03:28:01;;;;;;;;;;;22.70;56.50;;;;;;4922134;28;44909;-84
2023/09/06 03:30:33;;;;;;;;;;;22.70;56.40;;;;;;4888321;28;46505;-84
2023/09/06 03:32:59;;;;;;;;;;;22.70;56.40;;;;;;4920001;28;45336;-84
2023/09/06 03:35:45;;;;;;;;;;;22.70;56.40;;;;;;4906694;28;44836;-84
2023/09/06 03:38:10;;;;;;;;;;;22.70;56.40;;;;;;4915915;28;45159;-85
2023/09/06 03:40:36;;;;;;;;;;;22.70;56.50;;;;;;4915628;28;45056;-84
2023/09/06 03:43:05;;;;;;;;;;;22.70;56.40;;;;;;4896473;28;45163;-84
2023/09/06 03:45:32;;;;;;;;;;;22.70;56.40;;;;;;4900488;28;45448;-84
2023/09/06 03:47:57;;;;;;;;;;;22.70;56.40;;;;;;4935449;28;45870;-84
2023/09/06 03:50:29;;;;;;;;;;;22.70;56.40;;;;;;4898900;28;46312;-84
2023/09/06 03:52:54;;;;;;;;;;;22.70;56.40;;;;;;4918701;28;45160;-84
2023/09/06 03:55:20;;;;;;;;;;;22.70;56.40;;;;;;4883512;28;45200;-85
2023/09/06 03:57:46;;;;;;;;;;;22.70;56.40;;;;;;4904044;28;45136;-84
2023/09/06 04:00:26;;;;;;;;;;;22.70;56.40;;;;;;4897744;28;46766;-83
2023/09/06 04:02:55;;;;;;;;;;;22.70;56.40;;;;;;4912783;28;45687;-84
2023/09/06 04:05:25;;;;;;;;;;;22.70;56.40;;;;;;4901863;28;45624;-84
2023/09/06 04:07:55;;;;;;;;;;;22.60;56.30;;;;;;4909436;28;45292;-84
2023/09/06 04:10:23;;;;;;;;;;;22.70;56.40;;;;;;4904440;28;45614;-84
2023/09/06 04:12:50;;;;;;;;;;;22.70;56.30;;;;;;4886890;28;45732;-84
2023/09/06 04:15:16;;;;;;;;;;;22.70;56.30;;;;;;4895355;28;45282;-86
2023/09/06 04:17:42;;;;;;;;;;;22.60;56.30;;;;;;4901008;28;46769;-84
2023/09/06 04:20:19;;;;;;;;;;;22.60;56.30;;;;;;4936253;28;45777;-85
2023/09/06 04:22:45;;;;;;;;;;;22.60;56.30;;;;;;4920550;28;45595;-85
2023/09/06 04:25:11;;;;;;;;;;;22.60;56.30;;;;;;4901000;28;45507;-84
2023/09/06 04:27:38;;;;;;;;;;;22.70;56.30;;;;;;4903057;28;45489;-84
2023/09/06 04:30:05;;;;;;;;;;;22.70;56.30;;;;;;4899343;28;46324;-85
2023/09/06 04:32:31;;;;;;;;;;;22.70;56.30;;;;;;4899871;28;45678;-85
2023/09/06 04:34:56;;;;;;;;;;;22.70;56.30;;;;;;4906888;28;45412;-84
2023/09/06 04:37:21;;;;;;;;;;;22.60;56.20;;;;;;4902930;28;45082;-84
2023/09/06 04:39:47;;;;;;;;;;;22.60;56.20;;;;;;4901859;28;46724;-84
2023/09/06 04:42:13;;;;;;;;;;;22.60;56.10;;;;;;4904697;28;45273;-84
2023/09/06 04:44:39;;;;;;;;;;;22.70;56.20;;;;;;4907913;28;45483;-84
2023/09/06 04:47:04;;;;;;;;;;;22.60;56.10;;;;;;4928621;28;45531;-85
2023/09/06 04:49:30;;;;;;;;;;;22.70;56.20;;;;;;4887663;28;46053;-84
2023/09/06 04:51:56;;;;;;;;;;;22.60;56.10;;;;;;4901151;28;45768;-84
2023/09/06 04:54:22;;;;;;;;;;;22.60;56.10;;;;;;4934258;28;45638;-84
2023/09/06 04:56:47;;;;;;;;;;;22.60;56.10;;;;;;4935093;28;46660;-84
2023/09/06 04:59:13;;;;;;;;;;;22.60;56.10;;;;;;4921916;28;46225;-84
2023/09/06 05:01:39;;;;;;;;;;;22.60;56.10;;;;;;4902670;28;45877;-84
2023/09/06 05:04:05;;;;;;;;;;;22.60;56.10;;;;;;4915603;28;45230;-85
2023/09/06 05:06:31;;;;;;;;;;;22.60;56.10;;;;;;4901129;28;45588;-84
2023/09/06 05:08:56;;;;;;;;;;;22.60;56.10;;;;;;4919756;28;46239;-84
2023/09/06 05:11:22;;;;;;;;;;;22.60;56.10;;;;;;4919605;28;45848;-84
2023/09/06 05:13:48;;;;;;;;;;;22.60;56.10;;;;;;4906237;28;45208;-84
2023/09/06 05:16:14;;;;;;;;;;;22.60;56.10;;;;;;4917404;28;45229;-84
2023/09/06 05:18:40;;;;;;;;;;;22.60;56.10;;;;;;4889122;28;45888;-84
2023/09/06 05:21:05;;;;;;;;;;;22.60;56.10;;;;;;4908776;28;45410;-84
2023/09/06 05:23:32;;;;;;;;;;;22.60;56.10;;;;;;4929545;28;45451;-84
2023/09/06 05:25:58;;;;;;;;;;;22.60;56.10;;;;;;4903393;28;45496;-84
2023/09/06 05:28:23;;;;;;;;;;;22.60;56.10;;;;;;4894639;28;45382;-84
2023/09/06 05:30:49;;;;;;;;;;;22.60;56.10;;;;;;4902638;28;45077;-85
2023/09/06 05:33:15;;;;;;;;;;;22.60;56.10;;;;;;4923447;28;45544;-84
2023/09/06 05:35:41;;;;;;;;;;;22.60;56.10;;;;;;4888140;28;45436;-83
2023/09/06 05:38:06;;;;;;;;;;;22.60;56.00;;;;;;4893139;28;45453;-84
2023/09/06 05:40:33;;;;;;;;;;;22.60;56.00;;;;;;4908821;28;45435;-84
2023/09/06 05:42:58;;;;;;;;;;;22.60;56.00;;;;;;4907071;28;45263;-84
2023/09/06 05:45:26;;;;;;;;;;;22.60;56.00;;;;;;4881008;28;46070;-83
2023/09/06 05:47:55;;;;;;;;;;;22.60;56.00;;;;;;4890774;28;46367;-83
2023/09/06 05:50:20;;;;;;;;;;;22.60;56.00;;;;;;4888887;28;44780;-84
2023/09/06 05:52:47;;;;;;;;;;;22.60;56.00;;;;;;4906093;28;45426;-86
2023/09/06 05:55:12;;;;;;;;;;;22.60;56.00;;;;;;4885448;28;45516;-87
2023/09/06 05:57:38;;;;;;;;;;;22.60;56.00;;;;;;4906885;28;45541;-84
2023/09/06 06:00:12;;;;;;;;;;;22.60;56.00;;;;;;4903679;28;45602;-84
2023/09/06 06:02:38;;;;;;;;;;;22.60;56.00;;;;;;4886907;28;45084;-84
2023/09/06 06:05:04;;;;;;;;;;;22.60;56.00;;;;;;4904347;28;45120;-84
2023/09/06 06:07:30;;;;;;;;;;;22.60;56.00;;;;;;4891332;28;46328;-84
2023/09/06 06:09:55;;;;;;;;;;;22.60;56.00;;;;;;4890298;28;45110;-84
2023/09/06 06:12:22;;;;;;;;;;;22.60;56.00;;;;;;4917346;28;45036;-84
2023/09/06 06:14:54;;;;;;;;;;;22.50;55.90;;;;;;4911438;28;45476;-84
2023/09/06 06:17:19;;;;;;;;;;;22.60;56.00;;;;;;4877266;28;46467;-84
2023/09/06 06:19:45;;;;;;;;;;;22.60;56.00;;;;;;4888782;28;45241;-84
2023/09/06 06:22:11;;;;;;;;;;;22.60;56.00;;;;;;4921082;28;45454;-84
2023/09/06 06:24:36;;;;;;;;;;;22.60;56.00;;;;;;4907858;28;45315;-82
2023/09/06 06:27:02;;;;;;;;;;;22.60;56.00;;;;;;4893242;28;46405;-84
2023/09/06 06:29:28;;;;;;;;;;;22.60;56.00;;;;;;4890899;28;45363;-84
2023/09/06 06:31:54;;;;;;;;;;;22.60;56.00;;;;;;4874445;28;45229;-85
2023/09/06 06:34:19;;;;;;;;;;;22.60;56.00;;;;;;4925459;28;44794;-84
2023/09/06 06:36:46;;;;;;;;;;;22.60;56.00;;;;;;4921674;28;45362;-83
2023/09/06 06:39:12;;;;;;;;;;;22.60;55.90;;;;;;4924661;28;45158;-84
2023/09/06 06:41:38;;;;;;;;;;;22.60;56.00;;;;;;4901281;28;45311;-84
2023/09/06 06:44:04;;;;;;;;;;;22.60;56.00;;;;;;4904458;28;45147;-84
2023/09/06 06:46:33;;;;;;;;;;;22.50;56.00;;;;;;4915989;28;45416;-84
2023/09/06 06:48:59;;;;;;;;;;;22.50;55.90;;;;;;4908554;28;45271;-84
2023/09/06 06:51:35;;;;;;;;;;;22.50;55.90;;;;;;4885844;28;45394;-84
2023/09/06 06:54:10;;;;;;;;;;;22.50;56.00;;;;;;4907181;28;44819;-84
2023/09/06 06:56:36;;;;;;;;;;;22.50;56.00;;;;;;4899548;28;46453;-84
2023/09/06 06:59:02;;;;;;;;;;;22.50;56.00;;;;;;4893829;28;44948;-84
2023/09/06 07:01:28;;;;;;;;;;;22.50;56.00;;;;;;4916364;28;45436;-84
2023/09/06 07:03:54;;;;;;;;;;;22.50;56.00;;;;;;4904407;28;45414;-84
2023/09/06 07:06:24;;;;;;;;;;;22.50;56.00;;;;;;4922219;28;45365;-83
2023/09/06 07:08:50;;;;;;;;;;;22.60;56.00;;;;;;4901880;28;45142;-83
2023/09/06 07:11:16;;;;;;;;;;;22.50;56.00;;;;;;4918114;28;45174;-84
2023/09/06 07:13:42;;;;;;;;;;;22.50;55.90;;;;;;4899827;28;45009;-84
2023/09/06 07:16:09;;;;;;;;;;;22.50;56.00;;;;;;4884125;28;46188;-86
2023/09/06 07:18:34;;;;;;;;;;;22.50;55.90;;;;;;4917974;28;44998;-84
2023/09/06 07:21:00;;;;;;;;;;;22.50;56.00;;;;;;4906785;28;45356;-84
2023/09/06 07:23:27;;;;;;;;;;;22.50;55.90;;;;;;4895252;28;45195;-84
2023/09/06 07:25:53;;;;;;;;;;;22.50;56.00;;;;;;4910075;28;46143;-86
2023/09/06 07:28:22;;;;;;;;;;;22.50;56.00;;;;;;4919147;28;45102;-83
2023/09/06 07:30:48;;;;;;;;;;;22.50;55.90;;;;;;4915752;28;45903;-83
2023/09/06 07:33:14;;;;;;;;;;;22.50;56.00;;;;;;4881723;28;45044;-84
2023/09/06 07:35:42;;;;;;;;;;;22.50;56.00;;;;;;4914057;28;45546;-83
2023/09/06 07:38:08;;;;;;;;;;;22.50;56.00;;;;;;4919007;28;45547;-84
2023/09/06 07:40:34;;;;;;;;;;;22.50;56.00;;;;;;4897225;28;45125;-83
2023/09/06 07:43:00;;;;;;;;;;;22.50;55.90;;;;;;4921899;28;45434;-84
2023/09/06 07:45:25;;;;;;;;;;;22.50;56.00;;;;;;4896526;28;47018;-85
2023/09/06 07:47:51;;;;;;;;;;;22.50;56.00;;;;;;4884504;28;45434;-83
2023/09/06 07:50:17;;;;;;;;;;;22.50;55.90;;;;;;4905607;28;45443;-84
2023/09/06 07:52:42;;;;;;;;;;;22.50;56.00;;;;;;4892886;28;45459;-84
2023/09/06 07:55:11;;;;;;;;;;;22.50;55.90;;;;;;4919979;28;45477;-84
2023/09/06 07:57:36;;;;;;;;;;;22.50;56.00;;;;;;4929497;28;45048;-83
2023/09/06 08:00:06;;;;;;;;;;;22.50;55.90;;;;;;4939987;28;45144;-86
2023/09/06 08:02:33;;;;;;;;;;;22.50;55.90;;;;;;4899529;28;45296;-84
2023/09/06 08:04:59;;;;;;;;;;;22.50;55.90;;;;;;4917515;28;45557;-85
2023/09/06 08:07:25;;;;;;;;;;;22.50;55.90;;;;;;4930524;28;45422;-83
2023/09/06 08:09:51;;;;;;;;;;;22.50;56.00;;;;;;4914264;28;45843;-84
2023/09/06 08:12:16;;;;;;;;;;;22.50;55.90;;;;;;4918494;28;45052;-83
2023/09/06 08:14:42;;;;;;;;;;;22.50;55.90;;;;;;4916683;28;45570;-84
2023/09/06 08:17:08;;;;;;;;;;;22.50;56.30;;;;;;4900375;28;45214;-84
2023/09/06 08:19:33;;;;;;;;;;;22.50;55.90;;;;;;4898401;28;45495;-84
2023/09/06 08:21:59;;;;;;;;;;;22.50;56.00;;;;;;4911562;28;45601;-85
2023/09/06 08:24:24;;;;;;;;;;;22.50;55.90;;;;;;4902339;28;45736;-83
2023/09/06 08:26:50;;;;;;;;;;;22.50;55.90;;;;;;4880336;28;45219;-84
2023/09/06 08:29:16;;;;;;;;;;;22.50;55.90;;;;;;4923530;28;44934;-84
2023/09/06 08:31:41;;;;;;;;;;;22.50;55.90;;;;;;4921405;28;45454;-84
2023/09/06 08:34:07;;;;;;;;;;;22.50;56.00;;;;;;4894430;28;45946;-83
2023/09/06 08:36:32;;;;;;;;;;;22.50;56.00;;;;;;4903585;28;45637;-84
2023/09/06 08:38:58;;;;;;;;;;;22.50;56.00;;;;;;4884622;28;45469;-86
2023/09/06 08:41:26;;;;;;;;;;;22.50;56.00;;;;;;4913111;28;45067;-84
2023/09/06 08:43:52;;;;;;;;;;;22.50;56.00;;;;;;4895514;28;45401;-84
2023/09/06 08:46:22;;;;;;;;;;;22.50;55.90;;;;;;4916160;28;45322;-84
2023/09/06 08:48:48;;;;;;;;;;;22.60;56.00;;;;;;4906236;28;45488;-84
2023/09/06 08:51:14;;;;;;;;;;;22.50;56.00;;;;;;4905380;28;46194;-84
2023/09/06 08:53:41;;;;;;;;;;;22.50;56.00;;;;;;4914458;28;45182;-84
2023/09/06 08:56:06;;;;;;;;;;;22.50;56.00;;;;;;4897721;28;45455;-84
2023/09/06 08:58:32;;;;;;;;;;;22.50;56.00;;;;;;4905597;28;44776;-84
2023/09/06 09:00:58;;;;;;;;;;;22.50;56.00;;;;;;4873257;29;45144;-84
2023/09/06 09:03:23;;;;;;;;;;;22.50;56.00;;;;;;4897619;28;45583;-84
2023/09/06 09:05:49;;;;;;;;;;;22.50;56.00;;;;;;4891530;28;45039;-83
2023/09/06 09:08:15;;;;;;;;;;;22.60;56.00;;;;;;4919193;28;44885;-84
2023/09/06 09:10:42;;;;;;;;;;;22.50;56.00;;;;;;4899167;28;45330;-81
2023/09/06 09:13:12;;;;;;;;;;;22.60;56.00;;;;;;4884849;28;46282;-84
2023/09/06 09:15:37;;;;;;;;;;;22.60;56.00;;;;;;4862753;28;45665;-83
2023/09/06 09:18:10;;;;;;;;;;;22.50;55.90;;;;;;4899802;28;45137;-84
2023/09/06 09:20:37;;;;;;;;;;;22.60;56.00;;;;;;4909711;28;45337;-84
2023/09/06 09:23:03;;;;;;;;;;;22.60;56.00;;;;;;4903149;28;45557;-85
2023/09/06 09:25:28;;;;;;;;;;;22.60;56.00;;;;;;4882067;28;45074;-84
2023/09/06 09:27:56;;;;;;;;;;;22.50;56.00;;;;;;4901372;28;45109;-83
2023/09/06 09:30:22;;;;;;;;;;;22.60;56.00;;;;;;4890880;28;45396;-83
2023/09/06 09:32:48;;;;;;;;;;;22.50;56.00;;;;;;4885935;28;46939;-83
2023/09/06 09:35:13;;;;;;;;;;;22.60;56.00;;;;;;4882532;28;45246;-84
2023/09/06 09:37:39;;;;;;;;;;;22.60;56.00;;;;;;4894309;28;44784;-84
2023/09/06 09:40:32;;;;;;;;;;;22.60;56.00;;;;;;4915039;28;45206;-84
2023/09/06 09:42:59;;;;;;;;;;;22.50;56.00;;;;;;4899644;28;45337;-84
2023/09/06 09:45:25;;;;;;;;;;;22.60;56.00;;;;;;4876247;28;45224;-85
2023/09/06 09:47:51;;;;;;;;;;;22.60;56.00;;;;;;4874802;28;44998;-83
2023/09/06 09:50:16;;;;;;;;;;;22.60;56.00;;;;;;4919504;28;45185;-82
2023/09/06 09:52:43;;;;;;;;;;;22.60;56.00;;;;;;4899536;28;45265;-83
2023/09/06 09:55:08;;;;;;;;;;;22.60;56.10;;;;;;4902393;28;44844;-86
2023/09/06 09:57:35;;;;;;;;;;;22.60;56.10;;;;;;4903451;28;44893;-83
2023/09/06 10:00:00;;;;;;;;;;;22.60;56.10;;;;;;4895713;28;45607;-84
2023/09/06 10:02:26;;;;;;;;;;;22.60;56.10;;;;;;4902044;28;46075;-83
2023/09/06 10:04:51;;;;;;;;;;;22.60;56.10;;;;;;4893730;29;45334;-83
2023/09/06 10:07:17;;;;;;;;;;;22.60;56.10;;;;;;4885714;28;45703;-84
2023/09/06 10:09:43;;;;;;;;;;;22.60;56.10;;;;;;4877923;29;45792;-83
2023/09/06 10:12:09;;;;;;;;;;;22.60;56.10;;;;;;4877387;28;46125;-84
2023/09/06 10:14:35;;;;;;;;;;;22.60;56.10;;;;;;4881185;28;44690;-84
2023/09/06 10:17:01;;;;;;;;;;;22.60;56.10;;;;;;4896534;28;45756;-84
2023/09/06 10:19:27;;;;;;;;;;;22.60;56.10;;;;;;4887648;28;45571;-84
2023/09/06 10:21:52;;;;;;;;;;;22.60;56.10;;;;;;4882236;28;46196;-84
2023/09/06 10:24:19;;;;;;;;;;;22.60;56.10;;;;;;4874647;28;46488;-84
2023/09/06 10:26:45;;;;;;;;;;;22.60;56.20;;;;;;4895771;28;45011;-83
2023/09/06 10:29:11;;;;;;;;;;;22.60;56.10;;;;;;4871915;28;45123;-84
2023/09/06 10:31:47;;;;;;;;;;;22.60;56.10;;;;;;4887766;28;46947;-84
2023/09/06 10:34:13;;;;;;;;;;;22.60;56.20;;;;;;4876407;28;45134;-84
2023/09/06 10:36:51;;;;;;;;;;;22.60;56.10;;;;;;4897034;28;45197;-84
2023/09/06 10:39:21;;;;;;;;;;;22.60;56.10;;;;;;4888431;28;44874;-84
2023/09/06 10:42:05;;;;;;;;;;;22.60;56.20;;;;;;4920663;28;45365;-84
2023/09/06 10:44:31;;;;;;;;;;;22.60;56.20;;;;;;4920565;28;44923;-83
2023/09/06 10:46:57;;;;;;;;;;;22.60;56.20;;;;;;4917046;28;45228;-84
2023/09/06 10:49:25;;;;;;;;;;;22.60;56.80;;;;;;4902745;28;45165;-84
2023/09/06 10:52:09;;;;;;;;;;;22.60;56.20;;;;;;4919601;28;45332;-84
2023/09/06 10:54:38;;;;;;;;;;;22.60;56.20;;;;;;4904399;28;44978;-84
2023/09/06 10:57:07;;;;;;;;;;;22.60;56.20;;;;;;4884436;28;44811;-84
2023/09/06 10:59:37;;;;;;;;;;;22.60;56.20;;;;;;4875980;28;44868;-84
2023/09/06 11:02:09;;;;;;;;;;;22.70;56.30;;;;;;4927896;28;47376;-84
2023/09/06 11:04:36;;;;;;;;;;;22.60;56.20;;;;;;4910363;28;45169;-84
2023/09/06 11:07:09;;;;;;;;;;;22.70;56.30;;;;;;4900375;28;44944;-84
2023/09/06 11:09:37;;;;;;;;;;;22.70;56.30;;;;;;4901503;28;44940;-84
2023/09/06 11:12:03;;;;;;;;;;;22.60;56.20;;;;;;4884095;28;45598;-84
2023/09/06 11:14:29;;;;;;;;;;;22.70;56.30;;;;;;4904740;28;45071;-84
2023/09/06 11:16:55;;;;;;;;;;;22.70;56.30;;;;;;4904808;28;45496;-84
2023/09/06 11:19:28;;;;;;;;;;;22.70;56.30;;;;;;4900711;28;44927;-84
2023/09/06 11:22:06;;;;;;;;;;;22.70;56.30;;;;;;4898116;28;46265;-84
2023/09/06 11:24:33;;;;;;;;;;;22.70;56.30;;;;;;4918188;28;45003;-84
2023/09/06 11:27:03;;;;;;;;;;;22.70;56.30;;;;;;4937398;28;45503;-84
2023/09/06 11:29:30;;;;;;;;;;;22.70;56.30;;;;;;4927727;28;45269;-84
2023/09/06 11:32:11;;;;;;;;;;;22.70;56.30;;;;;;4936073;28;45521;-84
2023/09/06 11:34:44;;;;;;;;;;;22.70;56.30;;;;;;4907138;28;45301;-85
2023/09/06 11:37:10;;;;;;;;;;;22.70;56.30;;;;;;4920109;28;45169;-84
2023/09/06 11:39:39;;;;;;;;;;;22.70;56.30;;;;;;4909496;28;44823;-84
2023/09/06 11:42:08;;;;;;;;;;;22.70;56.30;;;;;;4919276;28;45329;-84
2023/09/06 11:44:35;;;;;;;;;;;22.70;56.30;;;;;;4905989;28;45378;-86
2023/09/06 11:47:04;;;;;;;;;;;22.70;56.60;;;;;;4903865;28;45368;-84
2023/09/06 11:49:32;;;;;;;;;;;22.70;56.30;;;;;;4888988;28;45625;-84
2023/09/06 11:52:00;;;;;;;;;;;22.70;56.40;;;;;;4936880;28;45283;-84
2023/09/06 11:54:26;;;;;;;;;;;22.70;56.30;;;;;;4934143;28;45264;-85
2023/09/06 11:56:54;;;;;;;;;;;22.70;56.40;;;;;;4914592;28;45294;-84
2023/09/06 11:59:20;;;;;;;;;;;22.70;56.40;;;;;;4921214;28;45123;-84
2023/09/06 12:01:46;;;;;;;;;;;22.70;56.40;;;;;;4895777;28;45980;-84
2023/09/06 12:04:16;;;;;;;;;;;22.70;56.40;;;;;;4910294;28;44709;-84
2023/09/06 12:06:42;;;;;;;;;;;22.70;56.40;;;;;;4888844;28;45213;-85
2023/09/06 12:09:12;;;;;;;;;;;22.70;56.40;;;;;;4907455;28;45532;-85
2023/09/06 12:11:40;;;;;;;;;;;22.70;56.40;;;;;;4921704;28;45556;-84
2023/09/06 12:14:08;;;;;;;;;;;22.70;56.40;;;;;;4906606;28;45336;-84
2023/09/06 12:16:38;;;;;;;;;;;22.70;56.40;;;;;;4913624;28;44806;-83
2023/09/06 12:19:03;;;;;;;;;;;22.70;56.40;;;;;;4902320;28;47095;-83
2023/09/06 12:21:40;;;;;;;;;;;22.70;56.40;;;;;;4904594;28;46605;-84
2023/09/06 12:24:05;;;;;;;;;;;22.70;56.50;;;;;;4930698;28;45279;-84
2023/09/06 12:26:37;;;;;;;;;;;22.70;56.40;;;;;;4916451;28;45389;-84
2023/09/06 12:29:03;;;;;;;;;;;22.70;56.40;;;;;;4888367;28;45386;-83
2023/09/06 12:31:29;;;;;;;;;;;22.70;56.40;;;;;;4884784;28;47332;-84
2023/09/06 12:33:54;;;;;;;;;;;22.70;56.40;;;;;;4901365;28;45141;-84
2023/09/06 12:36:20;;;;;;;;;;;22.70;56.50;;;;;;4911892;28;44874;-85
2023/09/06 12:38:46;;;;;;;;;;;22.70;56.50;;;;;;4911585;28;44978;-84
2023/09/06 12:41:12;;;;;;;;;;;22.70;56.40;;;;;;4898590;28;45667;-85
2023/09/06 12:43:38;;;;;;;;;;;22.70;56.50;;;;;;4904405;28;45155;-85
2023/09/06 12:46:06;;;;;;;;;;;22.70;56.50;;;;;;4934764;28;45294;-84
2023/09/06 12:48:31;;;;;;;;;;;22.70;56.50;;;;;;4930419;28;44770;-84
2023/09/06 12:50:57;;;;;;;;;;;22.70;56.50;;;;;;4885333;28;46172;-84
2023/09/06 12:53:23;;;;;;;;;;;22.70;56.50;;;;;;4919250;28;45936;-84
2023/09/06 12:55:48;;;;;;;;;;;22.80;56.50;;;;;;4903075;28;44731;-84
2023/09/06 12:58:14;;;;;;;;;;;22.70;56.50;;;;;;4905664;28;45265;-84
2023/09/06 13:00:40;;;;;;;;;;;22.70;56.50;;;;;;4894353;28;45571;-84
2023/09/06 13:03:06;;;;;;;;;;;22.70;56.50;;;;;;4888954;28;45366;-83
2023/09/06 13:05:32;;;;;;;;;;;22.70;56.50;;;;;;4886292;28;45311;-84
2023/09/06 13:08:00;;;;;;;;;;;22.70;56.50;;;;;;4916256;28;45462;-84
2023/09/06 13:10:26;;;;;;;;;;;22.70;56.50;;;;;;4880665;28;45423;-84
2023/09/06 13:12:52;;;;;;;;;;;22.70;56.50;;;;;;4908713;28;44589;-84
2023/09/06 13:15:17;;;;;;;;;;;22.80;56.60;;;;;;4890405;28;45391;-84
2023/09/06 13:17:43;;;;;;;;;;;22.80;56.60;;;;;;4892869;28;45173;-84
2023/09/06 13:20:10;;;;;;;;;;;22.70;56.50;;;;;;4903680;28;46039;-85
2023/09/06 13:22:41;;;;;;;;;;;22.70;56.60;;;;;;4895107;28;45093;-83
2023/09/06 13:25:07;;;;;;;;;;;22.70;56.60;;;;;;4903950;28;44641;-84
2023/09/06 13:27:33;;;;;;;;;;;22.80;56.60;;;;;;4909672;28;45609;-84
2023/09/06 13:29:59;;;;;;;;;;;22.70;56.60;;;;;;4909186;28;46439;-84
2023/09/06 13:32:25;;;;;;;;;;;22.70;56.60;;;;;;4883453;28;45207;-85
2023/09/06 13:34:52;;;;;;;;;;;22.70;56.60;;;;;;4894804;28;44850;-84
2023/09/06 13:37:18;;;;;;;;;;;22.70;56.60;;;;;;4905593;28;44919;-83
2023/09/06 13:39:44;;;;;;;;;;;22.80;56.60;;;;;;4894115;28;45186;-84
2023/09/06 13:42:09;;;;;;;;;;;22.70;56.60;;;;;;4899840;28;45130;-84
2023/09/06 13:44:35;;;;;;;;;;;22.80;56.60;;;;;;4915042;28;45308;-84
2023/09/06 13:47:01;;;;;;;;;;;22.70;56.60;;;;;;4881222;28;44716;-84
2023/09/06 13:49:26;;;;;;;;;;;22.70;56.60;;;;;;4889770;28;47091;-84
2023/09/06 13:52:11;;;;;;;;;;;22.70;56.60;;;;;;4884231;28;45312;-84
2023/09/06 13:54:37;;;;;;;;;;;22.80;56.70;;;;;;4922530;28;45138;-84
2023/09/06 13:57:03;;;;;;;;;;;22.80;56.70;;;;;;4938964;28;45388;-84
2023/09/06 13:59:29;;;;;;;;;;;22.70;56.60;;;;;;4894244;28;46290;-84
2023/09/06 14:01:54;;;;;;;;;;;22.70;56.60;;;;;;4914461;28;45493;-85
2023/09/06 14:04:20;;;;;;;;;;;22.70;56.60;;;;;;4898614;28;45317;-83
2023/09/06 14:06:45;;;;;;;;;;;22.80;56.70;;;;;;4902865;28;45154;-83
2023/09/06 14:09:11;;;;;;;;;;;22.70;56.70;;;;;;4908974;28;45976;-84
2023/09/06 14:11:38;;;;;;;;;;;22.70;56.70;;;;;;4915702;28;44758;-84
2023/09/06 14:14:04;;;;;;;;;;;22.80;56.70;;;;;;4920681;28;45251;-84
2023/09/06 14:16:31;;;;;;;;;;;22.80;56.70;;;;;;4919441;28;45223;-84
2023/09/06 14:18:57;;;;;;;;;;;22.80;56.70;;;;;;4889588;28;45585;-83
2023/09/06 14:21:22;;;;;;;;;;;22.80;56.70;;;;;;4930808;28;45057;-84
2023/09/06 14:23:49;;;;;;;;;;;22.80;56.70;;;;;;4925059;28;45437;-84
2023/09/06 14:26:14;;;;;;;;;;;22.70;56.70;;;;;;4882661;28;45037;-84
2023/09/06 14:28:41;;;;;;;;;;;22.80;56.70;;;;;;4889143;28;46169;-84
2023/09/06 14:31:10;;;;;;;;;;;22.80;56.70;;;;;;4901006;28;45199;-83
2023/09/06 14:33:36;;;;;;;;;;;22.80;56.70;;;;;;4904983;28;45150;-84
2023/09/06 14:36:04;;;;;;;;;;;22.80;56.80;;;;;;4902794;28;45200;-84
2023/09/06 14:38:30;;;;;;;;;;;22.80;56.70;;;;;;4905733;28;46250;-84
2023/09/06 14:40:57;;;;;;;;;;;22.80;56.80;;;;;;4916902;28;45367;-84
2023/09/06 14:43:23;;;;;;;;;;;22.80;56.80;;;;;;4913184;28;45615;-84
2023/09/06 14:45:48;;;;;;;;;;;22.80;56.80;;;;;;4914383;28;45214;-83
2023/09/06 14:48:14;;;;;;;;;;;22.80;56.70;;;;;;4908841;28;46226;-82
2023/09/06 14:50:40;;;;;;;;;;;22.80;56.70;;;;;;4902003;28;46445;-84
2023/09/06 14:53:06;;;;;;;;;;;22.80;57.40;;;;;;4892542;28;45181;-84
2023/09/06 14:55:31;;;;;;;;;;;22.80;56.80;;;;;;4896718;28;45319;-84
2023/09/06 14:57:57;;;;;;;;;;;22.80;56.80;;;;;;4910624;28;46495;-84
2023/09/06 15:00:22;;;;;;;;;;;22.80;56.80;;;;;;4917866;28;45709;-85
2023/09/06 15:02:51;;;;;;;;;;;22.80;56.80;;;;;;4896218;28;45575;-84
2023/09/06 15:05:17;;;;;;;;;;;22.80;56.80;;;;;;4884679;28;45286;-84
2023/09/06 15:07:43;;;;;;;;;;;22.80;56.80;;;;;;4888467;28;46318;-83
2023/09/06 15:10:14;;;;;;;;;;;22.80;56.80;;;;;;4931932;28;45407;-84
2023/09/06 15:12:40;;;;;;;;;;;22.80;56.80;;;;;;4916107;28;45341;-84
2023/09/06 15:15:06;;;;;;;;;;;22.80;56.80;;;;;;4936559;28;44679;-84
2023/09/06 15:17:34;;;;;;;;;;;22.80;56.90;;;;;;4888308;28;46224;-84
2023/09/06 15:19:59;;;;;;;;;;;22.80;56.80;;;;;;4888582;28;45245;-83
2023/09/06 15:22:25;;;;;;;;;;;22.80;56.80;;;;;;4921925;28;44749;-84
2023/09/06 15:24:51;;;;;;;;;;;22.80;56.80;;;;;;4904932;28;45461;-84
2023/09/06 15:27:16;;;;;;;;;;;22.80;56.90;;;;;;4895570;28;46159;-83
2023/09/06 15:29:44;;;;;;;;;;;22.80;56.90;;;;;;4904143;28;45200;-84
2023/09/06 15:32:10;;;;;;;;;;;22.80;56.90;;;;;;4905120;28;45226;-84
2023/09/06 15:34:39;;;;;;;;;;;22.80;56.90;;;;;;4890009;28;45380;-83
2023/09/06 15:37:06;;;;;;;;;;;22.80;56.90;;;;;;4890276;28;46344;-84
2023/09/06 15:39:32;;;;;;;;;;;22.80;56.90;;;;;;4903835;28;44839;-84
2023/09/06 15:41:57;;;;;;;;;;;22.80;56.90;;;;;;4896350;28;45256;-83
2023/09/06 15:44:23;;;;;;;;;;;22.80;56.90;;;;;;4906051;28;45444;-84
2023/09/06 15:46:48;;;;;;;;;;;22.80;56.90;;;;;;4879379;28;46504;-83
2023/09/06 15:49:14;;;;;;;;;;;22.80;56.90;;;;;;4906110;28;45555;-84
2023/09/06 15:51:40;;;;;;;;;;;22.80;56.90;;;;;;4900774;28;45477;-84
2023/09/06 15:54:05;;;;;;;;;;;22.80;56.90;;;;;;4886496;28;45174;-84
2023/09/06 15:56:31;;;;;;;;;;;22.80;56.90;;;;;;4890160;28;46360;-84
2023/09/06 15:58:56;;;;;;;;;;;22.80;56.90;;;;;;4922422;28;45191;-83
2023/09/06 16:01:23;;;;;;;;;;;22.80;56.90;;;;;;4908117;28;45479;-84
2023/09/06 16:03:48;;;;;;;;;;;22.80;56.90;;;;;;4905291;28;45221;-84
2023/09/06 16:06:14;;;;;;;;;;;22.80;56.90;;;;;;4918438;28;45349;-84
2023/09/06 16:08:39;;;;;;;;;;;22.80;56.90;;;;;;4905242;28;44846;-83
2023/09/06 16:11:05;;;;;;;;;;;22.80;56.90;;;;;;4912609;28;45174;-83
2023/09/06 16:13:30;;;;;;;;;;;22.80;56.90;;;;;;4885719;28;45099;-83
2023/09/06 16:15:57;;;;;;;;;;;22.80;56.90;;;;;;4889505;28;46070;-83
2023/09/06 16:18:23;;;;;;;;;;;22.80;56.90;;;;;;4903196;28;45343;-83
2023/09/06 16:20:49;;;;;;;;;;;22.80;56.90;;;;;;4900354;28;45312;-82
2023/09/06 16:23:14;;;;;;;;;;;22.80;56.90;;;;;;4905462;28;45480;-84
2023/09/06 16:25:41;;;;;;;;;;;22.80;56.90;;;;;;4908214;28;47058;-84
2023/09/06 16:28:06;;;;;;;;;;;22.80;56.90;;;;;;4906334;28;45132;-83
2023/09/06 16:30:34;;;;;;;;;;;22.80;56.90;;;;;;4883759;28;45096;-84
2023/09/06 16:33:00;;;;;;;;;;;22.80;56.90;;;;;;4914556;28;45860;-84
2023/09/06 16:35:25;;;;;;;;;;;22.80;56.90;;;;;;4911659;28;47031;-83
2023/09/06 16:37:51;;;;;;;;;;;22.80;56.90;;;;;;4885762;28;45303;-84
2023/09/06 16:40:20;;;;;;;;;;;22.80;57.00;;;;;;4897866;28;45336;-84
2023/09/06 16:42:46;;;;;;;;;;;22.80;56.90;;;;;;4900991;28;45147;-83
2023/09/06 16:45:14;;;;;;;;;;;22.80;56.90;;;;;;4897542;28;46162;-84
2023/09/06 16:47:40;;;;;;;;;;;22.80;56.90;;;;;;4925533;28;45304;-84
2023/09/06 16:50:06;;;;;;;;;;;22.80;56.90;;;;;;4935638;28;45343;-84
2023/09/06 16:52:32;;;;;;;;;;;22.80;56.90;;;;;;4922850;28;45815;-84
2023/09/06 16:54:59;;;;;;;;;;;22.80;56.90;;;;;;4939414;28;45978;-82
2023/09/06 16:57:25;;;;;;;;;;;22.80;57.00;;;;;;4906005;28;45333;-84
2023/09/06 16:59:51;;;;;;;;;;;22.80;57.00;;;;;;4936869;28;44904;-84
2023/09/06 17:02:19;;;;;;;;;;;22.80;57.00;;;;;;4911674;28;45417;-84
2023/09/06 17:04:45;;;;;;;;;;;22.80;57.00;;;;;;4907943;28;45471;-83
2023/09/06 17:07:10;;;;;;;;;;;22.80;57.00;;;;;;4884456;28;45243;-83
2023/09/06 17:09:36;;;;;;;;;;;22.90;57.00;;;;;;4895876;28;45500;-84
2023/09/06 17:12:02;;;;;;;;;;;22.80;57.00;;;;;;4924332;28;45930;-82
2023/09/06 17:14:28;;;;;;;;;;;22.80;57.00;;;;;;4901755;28;45402;-84